sensor_id;sensor_type;location;lat;lon;timestamp;temperature;humidity
77277;DHT22;66330;52.166;9.978;2023-01-13T00:00:21;10.70;85.70
77277;DHT22;66330;52.166;9.978;2023-01-13T00:02:46;10.60;85.80
77277;DHT22;66330;52.166;9.978;2023-01-13T00:05:12;10.60;85.90
77277;DHT22;66330;52.166;9.978;2023-01-13T00:07:38;10.70;86.00
77277;DHT22;66330;52.166;9.978;2023-01-13T00:10:09;10.60;85.90
77277;DHT22;66330;52.166;9.978;2023-01-13T00:12:41;10.60;85.80
77277;DHT22;66330;52.166;9.978;2023-01-13T00:15:09;10.60;85.90
77277;DHT22;66330;52.166;9.978;2023-01-13T00:17:35;10.70;85.80
77277;DHT22;66330;52.166;9.978;2023-01-13T00:20:01;10.60;85.60
77277;DHT22;66330;52.166;9.978;2023-01-13T00:22:27;10.60;85.30
77277;DHT22;66330;52.166;9.978;2023-01-13T00:24:53;10.60;85.40
77277;DHT22;66330;52.166;9.978;2023-01-13T00:27:19;10.60;85.40
77277;DHT22;66330;52.166;9.978;2023-01-13T00:29:44;10.60;85.40
77277;DHT22;66330;52.166;9.978;2023-01-13T00:32:10;10.70;85.40
77277;DHT22;66330;52.166;9.978;2023-01-13T00:34:36;10.70;85.40
77277;DHT22;66330;52.166;9.978;2023-01-13T00:37:01;10.70;85.20
77277;DHT22;66330;52.166;9.978;2023-01-13T00:39:27;10.70;85.00
77277;DHT22;66330;52.166;9.978;2023-01-13T00:41:52;10.70;84.90
77277;DHT22;66330;52.166;9.978;2023-01-13T00:44:37;10.70;84.90
77277;DHT22;66330;52.166;9.978;2023-01-13T00:47:02;10.70;84.90
77277;DHT22;66330;52.166;9.978;2023-01-13T00:49:28;10.80;84.50
77277;DHT22;66330;52.166;9.978;2023-01-13T00:51:53;10.80;84.30
77277;DHT22;66330;52.166;9.978;2023-01-13T00:54:19;10.80;84.20
77277;DHT22;66330;52.166;9.978;2023-01-13T00:56:44;10.80;83.90
77277;DHT22;66330;52.166;9.978;2023-01-13T00:59:12;10.80;84.60
77277;DHT22;66330;52.166;9.978;2023-01-13T01:01:38;10.80;84.60
77277;DHT22;66330;52.166;9.978;2023-01-13T01:04:04;10.80;84.00
77277;DHT22;66330;52.166;9.978;2023-01-13T01:06:30;10.80;84.70
77277;DHT22;66330;52.166;9.978;2023-01-13T01:08:55;10.80;84.40
77277;DHT22;66330;52.166;9.978;2023-01-13T01:11:24;10.80;84.80
77277;DHT22;66330;52.166;9.978;2023-01-13T01:13:51;10.80;85.00
77277;DHT22;66330;52.166;9.978;2023-01-13T01:16:19;10.80;85.10
77277;DHT22;66330;52.166;9.978;2023-01-13T01:18:47;10.80;85.20
77277;DHT22;66330;52.166;9.978;2023-01-13T01:21:13;10.80;85.00
77277;DHT22;66330;52.166;9.978;2023-01-13T01:23:40;10.80;85.30
77277;DHT22;66330;52.166;9.978;2023-01-13T01:26:11;10.80;85.20
77277;DHT22;66330;52.166;9.978;2023-01-13T01:28:37;10.80;85.20
77277;DHT22;66330;52.166;9.978;2023-01-13T01:31:23;10.80;85.20
77277;DHT22;66330;52.166;9.978;2023-01-13T01:33:50;10.80;85.30
77277;DHT22;66330;52.166;9.978;2023-01-13T01:36:17;10.80;85.20
77277;DHT22;66330;52.166;9.978;2023-01-13T01:38:44;10.80;85.20
77277;DHT22;66330;52.166;9.978;2023-01-13T01:41:13;10.80;85.10
77277;DHT22;66330;52.166;9.978;2023-01-13T01:43:57;10.80;85.00
77277;DHT22;66330;52.166;9.978;2023-01-13T01:46:41;10.80;84.90
77277;DHT22;66330;52.166;9.978;2023-01-13T01:49:30;10.80;84.60
77277;DHT22;66330;52.166;9.978;2023-01-13T01:52:13;10.80;84.20
77277;DHT22;66330;52.166;9.978;2023-01-13T01:54:58;10.80;83.90
77277;DHT22;66330;52.166;9.978;2023-01-13T01:57:41;10.80;83.50
77277;DHT22;66330;52.166;9.978;2023-01-13T02:00:08;10.80;82.80
77277;DHT22;66330;52.166;9.978;2023-01-13T02:02:35;10.80;82.60
77277;DHT22;66330;52.166;9.978;2023-01-13T02:05:01;10.80;82.40
77277;DHT22;66330;52.166;9.978;2023-01-13T02:07:30;10.80;82.20
77277;DHT22;66330;52.166;9.978;2023-01-13T02:09:58;10.80;81.70
77277;DHT22;66330;52.166;9.978;2023-01-13T02:12:24;10.80;81.50
77277;DHT22;66330;52.166;9.978;2023-01-13T02:15:14;10.80;81.20
77277;DHT22;66330;52.166;9.978;2023-01-13T02:17:47;10.80;80.30
77277;DHT22;66330;52.166;9.978;2023-01-13T02:23:12;10.70;80.50
77277;DHT22;66330;52.166;9.978;2023-01-13T02:37:54;10.70;80.70
77277;DHT22;66330;52.166;9.978;2023-01-13T02:40:24;10.70;80.80
77277;DHT22;66330;52.166;9.978;2023-01-13T02:43:03;10.70;80.80
77277;DHT22;66330;52.166;9.978;2023-01-13T02:45:52;10.70;80.80
77277;DHT22;66330;52.166;9.978;2023-01-13T02:48:21;10.70;80.80
77277;DHT22;66330;52.166;9.978;2023-01-13T02:50:54;10.70;80.90
77277;DHT22;66330;52.166;9.978;2023-01-13T02:53:36;10.70;81.10
77277;DHT22;66330;52.166;9.978;2023-01-13T02:56:04;10.60;81.30
77277;DHT22;66330;52.166;9.978;2023-01-13T02:58:31;10.60;81.40
77277;DHT22;66330;52.166;9.978;2023-01-13T03:00:59;10.60;82.40
77277;DHT22;66330;52.166;9.978;2023-01-13T03:03:25;10.60;81.90
77277;DHT22;66330;52.166;9.978;2023-01-13T03:05:53;10.50;82.10
77277;DHT22;66330;52.166;9.978;2023-01-13T03:08:42;10.50;81.80
77277;DHT22;66330;52.166;9.978;2023-01-13T03:11:12;10.40;82.70
77277;DHT22;66330;52.166;9.978;2023-01-13T03:24:37;10.40;83.50
77277;DHT22;66330;52.166;9.978;2023-01-13T03:27:11;10.40;83.50
77277;DHT22;66330;52.166;9.978;2023-01-13T03:29:49;10.40;83.60
77277;DHT22;66330;52.166;9.978;2023-01-13T03:32:38;10.40;83.40
77277;DHT22;66330;52.166;9.978;2023-01-13T03:35:18;10.40;83.20
77277;DHT22;66330;52.166;9.978;2023-01-13T03:37:48;10.30;82.80
77277;DHT22;66330;52.166;9.978;2023-01-13T03:40:22;10.40;82.90
77277;DHT22;66330;52.166;9.978;2023-01-13T03:42:54;10.30;82.40
77277;DHT22;66330;52.166;9.978;2023-01-13T03:45:40;10.40;81.40
77277;DHT22;66330;52.166;9.978;2023-01-13T03:48:14;10.40;81.00
77277;DHT22;66330;52.166;9.978;2023-01-13T03:50:51;10.40;81.20
77277;DHT22;66330;52.166;9.978;2023-01-13T03:53:31;10.30;80.70
77277;DHT22;66330;52.166;9.978;2023-01-13T03:56:10;10.40;80.40
77277;DHT22;66330;52.166;9.978;2023-01-13T03:58:40;10.40;79.60
77277;DHT22;66330;52.166;9.978;2023-01-13T04:01:15;10.40;79.10
77277;DHT22;66330;52.166;9.978;2023-01-13T04:08:56;10.40;78.70
77277;DHT22;66330;52.166;9.978;2023-01-13T04:11:34;10.50;78.50
77277;DHT22;66330;52.166;9.978;2023-01-13T04:14:02;10.50;78.70
77277;DHT22;66330;52.166;9.978;2023-01-13T04:16:28;10.40;77.90
77277;DHT22;66330;52.166;9.978;2023-01-13T04:18:54;10.40;77.70
77277;DHT22;66330;52.166;9.978;2023-01-13T04:21:20;10.40;78.20
77277;DHT22;66330;52.166;9.978;2023-01-13T04:23:45;10.40;78.40
77277;DHT22;66330;52.166;9.978;2023-01-13T04:26:16;10.40;78.40
77277;DHT22;66330;52.166;9.978;2023-01-13T04:28:41;10.40;78.20
77277;DHT22;66330;52.166;9.978;2023-01-13T04:31:07;10.40;77.70
77277;DHT22;66330;52.166;9.978;2023-01-13T04:33:33;10.40;77.20
77277;DHT22;66330;52.166;9.978;2023-01-13T04:35:58;10.40;77.20
77277;DHT22;66330;52.166;9.978;2023-01-13T04:38:24;10.40;76.80
77277;DHT22;66330;52.166;9.978;2023-01-13T04:40:49;10.40;76.60
77277;DHT22;66330;52.166;9.978;2023-01-13T04:43:15;10.40;76.30
77277;DHT22;66330;52.166;9.978;2023-01-13T04:45:42;10.40;75.90
77277;DHT22;66330;52.166;9.978;2023-01-13T04:48:07;10.40;75.50
77277;DHT22;66330;52.166;9.978;2023-01-13T04:50:33;10.40;75.20
77277;DHT22;66330;52.166;9.978;2023-01-13T04:52:59;10.40;74.50
77277;DHT22;66330;52.166;9.978;2023-01-13T04:55:26;10.40;74.40
77277;DHT22;66330;52.166;9.978;2023-01-13T04:57:52;10.40;74.10
77277;DHT22;66330;52.166;9.978;2023-01-13T05:00:21;10.30;73.20
77277;DHT22;66330;52.166;9.978;2023-01-13T05:02:49;10.30;72.70
77277;DHT22;66330;52.166;9.978;2023-01-13T05:05:15;10.30;73.10
77277;DHT22;66330;52.166;9.978;2023-01-13T05:07:41;10.30;73.30
77277;DHT22;66330;52.166;9.978;2023-01-13T05:10:07;10.30;73.30
77277;DHT22;66330;52.166;9.978;2023-01-13T05:12:33;10.30;73.30
77277;DHT22;66330;52.166;9.978;2023-01-13T05:15:17;10.30;72.80
77277;DHT22;66330;52.166;9.978;2023-01-13T05:18:02;10.30;73.20
77277;DHT22;66330;52.166;9.978;2023-01-13T05:20:27;10.20;72.40
77277;DHT22;66330;52.166;9.978;2023-01-13T05:22:53;10.20;73.00
77277;DHT22;66330;52.166;9.978;2023-01-13T05:25:39;10.20;73.00
77277;DHT22;66330;52.166;9.978;2023-01-13T05:28:06;10.20;73.00
77277;DHT22;66330;52.166;9.978;2023-01-13T05:30:36;10.10;72.60
77277;DHT22;66330;52.166;9.978;2023-01-13T05:33:03;10.10;72.90
77277;DHT22;66330;52.166;9.978;2023-01-13T05:35:29;10.10;72.40
77277;DHT22;66330;52.166;9.978;2023-01-13T05:37:55;10.10;72.40
77277;DHT22;66330;52.166;9.978;2023-01-13T05:40:21;10.20;72.60
77277;DHT22;66330;52.166;9.978;2023-01-13T05:43:10;10.20;72.40
77277;DHT22;66330;52.166;9.978;2023-01-13T05:48:14;10.20;72.00
77277;DHT22;66330;52.166;9.978;2023-01-13T05:50:40;10.10;71.80
77277;DHT22;66330;52.166;9.978;2023-01-13T05:53:05;10.10;70.80
77277;DHT22;66330;52.166;9.978;2023-01-13T05:55:31;10.00;71.00
77277;DHT22;66330;52.166;9.978;2023-01-13T05:57:57;10.00;70.60
77277;DHT22;66330;52.166;9.978;2023-01-13T06:00:22;10.00;70.80
77277;DHT22;66330;52.166;9.978;2023-01-13T06:02:48;9.90;71.20
77277;DHT22;66330;52.166;9.978;2023-01-13T06:05:14;9.90;71.60
77277;DHT22;66330;52.166;9.978;2023-01-13T06:07:39;9.90;71.60
77277;DHT22;66330;52.166;9.978;2023-01-13T06:10:05;9.80;71.00
77277;DHT22;66330;52.166;9.978;2023-01-13T06:12:31;9.80;71.50
77277;DHT22;66330;52.166;9.978;2023-01-13T06:14:57;9.70;71.50
77277;DHT22;66330;52.166;9.978;2023-01-13T06:17:23;9.70;71.10
77277;DHT22;66330;52.166;9.978;2023-01-13T06:19:48;9.70;71.20
77277;DHT22;66330;52.166;9.978;2023-01-13T06:22:18;9.70;71.70
77277;DHT22;66330;52.166;9.978;2023-01-13T06:24:46;9.80;71.60
77277;DHT22;66330;52.166;9.978;2023-01-13T06:27:13;9.80;71.40
77277;DHT22;66330;52.166;9.978;2023-01-13T06:29:39;9.80;70.60
77277;DHT22;66330;52.166;9.978;2023-01-13T06:32:08;9.80;71.30
77277;DHT22;66330;52.166;9.978;2023-01-13T06:34:37;9.80;71.20
77277;DHT22;66330;52.166;9.978;2023-01-13T06:37:04;9.80;71.20
77277;DHT22;66330;52.166;9.978;2023-01-13T06:39:30;9.80;71.00
77277;DHT22;66330;52.166;9.978;2023-01-13T06:41:57;9.80;70.90
77277;DHT22;66330;52.166;9.978;2023-01-13T06:44:42;9.80;70.70
77277;DHT22;66330;52.166;9.978;2023-01-13T06:47:08;9.80;70.70
77277;DHT22;66330;52.166;9.978;2023-01-13T06:49:34;9.80;70.00
77277;DHT22;66330;52.166;9.978;2023-01-13T06:52:00;9.80;69.90
77277;DHT22;66330;52.166;9.978;2023-01-13T06:54:25;9.80;70.00
77277;DHT22;66330;52.166;9.978;2023-01-13T06:56:51;9.80;70.00
77277;DHT22;66330;52.166;9.978;2023-01-13T06:59:16;9.80;69.80
77277;DHT22;66330;52.166;9.978;2023-01-13T07:01:42;9.70;69.20
77277;DHT22;66330;52.166;9.978;2023-01-13T07:04:08;9.70;69.50
77277;DHT22;66330;52.166;9.978;2023-01-13T07:06:34;9.70;69.50
77277;DHT22;66330;52.166;9.978;2023-01-13T07:08:59;9.70;69.60
77277;DHT22;66330;52.166;9.978;2023-01-13T07:11:25;9.70;69.60
77277;DHT22;66330;52.166;9.978;2023-01-13T07:13:50;9.70;69.50
77277;DHT22;66330;52.166;9.978;2023-01-13T07:16:35;9.70;69.20
77277;DHT22;66330;52.166;9.978;2023-01-13T07:19:00;9.70;68.60
77277;DHT22;66330;52.166;9.978;2023-01-13T07:21:26;9.70;69.20
77277;DHT22;66330;52.166;9.978;2023-01-13T07:23:51;9.70;69.20
77277;DHT22;66330;52.166;9.978;2023-01-13T07:26:17;9.70;69.00
77277;DHT22;66330;52.166;9.978;2023-01-13T07:28:42;9.70;68.70
77277;DHT22;66330;52.166;9.978;2023-01-13T07:31:14;9.70;69.60
77277;DHT22;66330;52.166;9.978;2023-01-13T07:33:40;9.80;68.30
77277;DHT22;66330;52.166;9.978;2023-01-13T07:36:07;9.80;68.50
77277;DHT22;66330;52.166;9.978;2023-01-13T07:38:33;9.80;68.30
77277;DHT22;66330;52.166;9.978;2023-01-13T07:40:59;9.80;68.10
77277;DHT22;66330;52.166;9.978;2023-01-13T07:43:49;9.80;67.90
77277;DHT22;66330;52.166;9.978;2023-01-13T07:46:14;9.70;67.60
77277;DHT22;66330;52.166;9.978;2023-01-13T07:48:40;9.70;67.60
77277;DHT22;66330;52.166;9.978;2023-01-13T07:51:08;9.70;67.10
77277;DHT22;66330;52.166;9.978;2023-01-13T07:53:34;9.70;67.00
77277;DHT22;66330;52.166;9.978;2023-01-13T07:56:01;9.70;67.80
77277;DHT22;66330;52.166;9.978;2023-01-13T07:58:27;9.80;67.70
77277;DHT22;66330;52.166;9.978;2023-01-13T08:00:53;9.80;67.50
77277;DHT22;66330;52.166;9.978;2023-01-13T08:03:19;9.80;67.30
77277;DHT22;66330;52.166;9.978;2023-01-13T08:05:46;9.90;67.40
77277;DHT22;66330;52.166;9.978;2023-01-13T08:08:11;9.90;67.30
77277;DHT22;66330;52.166;9.978;2023-01-13T08:10:37;10.00;66.00
77277;DHT22;66330;52.166;9.978;2023-01-13T08:13:14;9.90;66.90
77277;DHT22;66330;52.166;9.978;2023-01-13T08:15:45;10.00;64.90
77277;DHT22;66330;52.166;9.978;2023-01-13T08:18:11;10.00;65.50
77277;DHT22;66330;52.166;9.978;2023-01-13T08:20:37;10.00;65.50
77277;DHT22;66330;52.166;9.978;2023-01-13T08:23:03;10.00;65.50
77277;DHT22;66330;52.166;9.978;2023-01-13T08:25:29;10.10;65.50
77277;DHT22;66330;52.166;9.978;2023-01-13T08:27:55;10.10;65.40
77277;DHT22;66330;52.166;9.978;2023-01-13T08:30:22;10.10;64.60
77277;DHT22;66330;52.166;9.978;2023-01-13T08:32:49;10.20;65.30
77277;DHT22;66330;52.166;9.978;2023-01-13T08:35:15;10.20;65.30
77277;DHT22;66330;52.166;9.978;2023-01-13T08:37:42;10.10;65.10
77277;DHT22;66330;52.166;9.978;2023-01-13T08:40:09;10.20;65.20
77277;DHT22;66330;52.166;9.978;2023-01-13T08:42:34;10.20;65.20
77277;DHT22;66330;52.166;9.978;2023-01-13T08:45:00;10.20;65.10
77277;DHT22;66330;52.166;9.978;2023-01-13T08:47:27;10.20;65.10
77277;DHT22;66330;52.166;9.978;2023-01-13T08:49:53;10.20;64.80
77277;DHT22;66330;52.166;9.978;2023-01-13T08:52:19;10.20;64.10
77277;DHT22;66330;52.166;9.978;2023-01-13T08:54:45;10.30;64.50
77277;DHT22;66330;52.166;9.978;2023-01-13T08:57:11;10.30;64.40
77277;DHT22;66330;52.166;9.978;2023-01-13T08:59:36;10.30;64.10
77277;DHT22;66330;52.166;9.978;2023-01-13T09:02:02;10.50;63.70
77277;DHT22;66330;52.166;9.978;2023-01-13T09:04:28;10.30;63.80
77277;DHT22;66330;52.166;9.978;2023-01-13T09:06:54;10.30;62.80
77277;DHT22;66330;52.166;9.978;2023-01-13T09:09:21;10.40;64.20
77277;DHT22;66330;52.166;9.978;2023-01-13T09:11:49;10.40;62.50
77277;DHT22;66330;52.166;9.978;2023-01-13T09:14:35;10.40;62.40
77277;DHT22;66330;52.166;9.978;2023-01-13T09:17:02;10.40;61.50
77277;DHT22;66330;52.166;9.978;2023-01-13T09:19:28;10.40;61.80
77277;DHT22;66330;52.166;9.978;2023-01-13T09:21:55;10.50;61.50
77277;DHT22;66330;52.166;9.978;2023-01-13T09:24:22;10.60;61.20
77277;DHT22;66330;52.166;9.978;2023-01-13T09:26:48;10.60;60.40
77277;DHT22;66330;52.166;9.978;2023-01-13T09:29:14;10.60;60.20
77277;DHT22;66330;52.166;9.978;2023-01-13T09:31:40;10.60;59.70
77277;DHT22;66330;52.166;9.978;2023-01-13T09:34:08;10.60;59.50
77277;DHT22;66330;52.166;9.978;2023-01-13T09:36:53;10.60;59.30
77277;DHT22;66330;52.166;9.978;2023-01-13T09:39:19;10.50;58.90
77277;DHT22;66330;52.166;9.978;2023-01-13T09:41:51;10.50;58.90
77277;DHT22;66330;52.166;9.978;2023-01-13T09:47:34;10.60;58.60
77277;DHT22;66330;52.166;9.978;2023-01-13T09:50:44;10.70;58.50
77277;DHT22;66330;52.166;9.978;2023-01-13T09:53:09;10.70;58.40
77277;DHT22;66330;52.166;9.978;2023-01-13T09:55:36;10.80;58.00
77277;DHT22;66330;52.166;9.978;2023-01-13T09:58:13;10.80;58.10
77277;DHT22;66330;52.166;9.978;2023-01-13T10:03:39;11.00;57.60
77277;DHT22;66330;52.166;9.978;2023-01-13T10:06:29;11.10;57.40
77277;DHT22;66330;52.166;9.978;2023-01-13T10:08:58;11.30;56.70
77277;DHT22;66330;52.166;9.978;2023-01-13T10:11:25;11.50;56.80
77277;DHT22;66330;52.166;9.978;2023-01-13T10:16:59;11.50;55.80
77277;DHT22;66330;52.166;9.978;2023-01-13T10:19:31;11.40;55.70
77277;DHT22;66330;52.166;9.978;2023-01-13T10:22:33;11.40;55.70
77277;DHT22;66330;52.166;9.978;2023-01-13T10:25:32;11.40;56.10
77277;DHT22;66330;52.166;9.978;2023-01-13T10:28:09;11.30;55.70
77277;DHT22;66330;52.166;9.978;2023-01-13T10:30:43;11.30;56.00
77277;DHT22;66330;52.166;9.978;2023-01-13T10:33:36;11.20;55.80
77277;DHT22;66330;52.166;9.978;2023-01-13T10:36:11;11.20;55.60
77277;DHT22;66330;52.166;9.978;2023-01-13T10:38:43;11.10;55.60
77277;DHT22;66330;52.166;9.978;2023-01-13T10:43:57;11.10;55.60
77277;DHT22;66330;52.166;9.978;2023-01-13T10:46:23;11.00;56.00
77277;DHT22;66330;52.166;9.978;2023-01-13T10:48:54;11.10;55.70
77277;DHT22;66330;52.166;9.978;2023-01-13T10:51:26;11.00;55.90
77277;DHT22;66330;52.166;9.978;2023-01-13T10:53:55;11.00;55.90
77277;DHT22;66330;52.166;9.978;2023-01-13T10:56:23;10.90;55.20
77277;DHT22;66330;52.166;9.978;2023-01-13T10:58:49;10.90;55.20
77277;DHT22;66330;52.166;9.978;2023-01-13T11:01:23;10.90;55.20
77277;DHT22;66330;52.166;9.978;2023-01-13T11:03:50;10.90;55.30
77277;DHT22;66330;52.166;9.978;2023-01-13T11:06:27;10.90;55.30
77277;DHT22;66330;52.166;9.978;2023-01-13T11:08:55;10.90;55.00
77277;DHT22;66330;52.166;9.978;2023-01-13T11:11:42;10.90;55.20
77277;DHT22;66330;52.166;9.978;2023-01-13T11:14:21;10.90;55.00
77277;DHT22;66330;52.166;9.978;2023-01-13T11:20:18;10.80;55.20
77277;DHT22;66330;52.166;9.978;2023-01-13T11:22:49;10.90;54.80
77277;DHT22;66330;52.166;9.978;2023-01-13T11:25:26;10.80;54.80
77277;DHT22;66330;52.166;9.978;2023-01-13T11:28:01;10.90;55.20
77277;DHT22;66330;52.166;9.978;2023-01-13T11:31:32;10.80;54.80
77277;DHT22;66330;52.166;9.978;2023-01-13T11:33:42;10.90;55.00
77277;DHT22;66330;52.166;9.978;2023-01-13T11:36:30;10.90;55.40
77277;DHT22;66330;52.166;9.978;2023-01-13T11:39:04;10.90;54.80
77277;DHT22;66330;52.166;9.978;2023-01-13T11:41:43;10.90;55.30
77277;DHT22;66330;52.166;9.978;2023-01-13T11:44:18;10.90;55.30
77277;DHT22;66330;52.166;9.978;2023-01-13T11:46:48;11.00;55.40
77277;DHT22;66330;52.166;9.978;2023-01-13T11:49:25;10.90;55.20
77277;DHT22;66330;52.166;9.978;2023-01-13T11:52:31;10.90;54.60
77277;DHT22;66330;52.166;9.978;2023-01-13T12:05:44;10.90;55.50
77277;DHT22;66330;52.166;9.978;2023-01-13T12:08:19;10.80;55.10
77277;DHT22;66330;52.166;9.978;2023-01-13T12:14:11;10.90;55.50
77277;DHT22;66330;52.166;9.978;2023-01-13T12:16:30;10.90;55.80
77277;DHT22;66330;52.166;9.978;2023-01-13T12:29:59;11.20;55.60
77277;DHT22;66330;52.166;9.978;2023-01-13T12:32:35;11.20;55.30
77277;DHT22;66330;52.166;9.978;2023-01-13T12:38:17;11.50;55.10
77277;DHT22;66330;52.166;9.978;2023-01-13T12:43:30;11.70;54.90
77277;DHT22;66330;52.166;9.978;2023-01-13T12:51:36;11.70;53.50
77277;DHT22;66330;52.166;9.978;2023-01-13T12:56:57;11.60;54.20
77277;DHT22;66330;52.166;9.978;2023-01-13T13:04:48;11.40;54.50
77277;DHT22;66330;52.166;9.978;2023-01-13T13:07:39;11.20;54.50
77277;DHT22;66330;52.166;9.978;2023-01-13T13:10:32;11.10;54.20
77277;DHT22;66330;52.166;9.978;2023-01-13T13:13:00;11.00;55.30
77277;DHT22;66330;52.166;9.978;2023-01-13T13:15:49;10.70;56.00
77277;DHT22;66330;52.166;9.978;2023-01-13T13:21:03;10.20;57.10
77277;DHT22;66330;52.166;9.978;2023-01-13T13:26:27;9.90;59.60
77277;DHT22;66330;52.166;9.978;2023-01-13T13:34:14;9.50;62.40
77277;DHT22;66330;52.166;9.978;2023-01-13T13:36:59;9.40;62.60
77277;DHT22;66330;52.166;9.978;2023-01-13T13:39:29;9.40;63.40
77277;DHT22;66330;52.166;9.978;2023-01-13T13:42:22;9.30;63.70
77277;DHT22;66330;52.166;9.978;2023-01-13T13:45:23;9.30;63.90
77277;DHT22;66330;52.166;9.978;2023-01-13T13:48:26;9.30;63.80
77277;DHT22;66330;52.166;9.978;2023-01-13T13:50:59;9.30;64.90
77277;DHT22;66330;52.166;9.978;2023-01-13T13:53:35;9.20;65.30
77277;DHT22;66330;52.166;9.978;2023-01-13T13:56:13;9.20;65.90
77277;DHT22;66330;52.166;9.978;2023-01-13T13:58:40;9.10;66.50
77277;DHT22;66330;52.166;9.978;2023-01-13T14:01:05;9.10;66.90
77277;DHT22;66330;52.166;9.978;2023-01-13T14:03:34;9.10;67.00
77277;DHT22;66330;52.166;9.978;2023-01-13T14:06:02;9.10;67.30
77277;DHT22;66330;52.166;9.978;2023-01-13T14:08:38;9.10;67.10
77277;DHT22;66330;52.166;9.978;2023-01-13T14:11:29;9.00;67.50
77277;DHT22;66330;52.166;9.978;2023-01-13T14:14:11;9.10;67.70
77277;DHT22;66330;52.166;9.978;2023-01-13T14:16:39;9.00;67.80
77277;DHT22;66330;52.166;9.978;2023-01-13T14:19:06;8.90;69.80
77277;DHT22;66330;52.166;9.978;2023-01-13T14:21:46;8.80;68.60
77277;DHT22;66330;52.166;9.978;2023-01-13T14:24:15;8.80;70.30
77277;DHT22;66330;52.166;9.978;2023-01-13T14:26:42;8.70;70.20
77277;DHT22;66330;52.166;9.978;2023-01-13T14:29:12;8.60;70.30
77277;DHT22;66330;52.166;9.978;2023-01-13T14:31:41;8.60;70.90
77277;DHT22;66330;52.166;9.978;2023-01-13T14:34:09;8.50;71.30
77277;DHT22;66330;52.166;9.978;2023-01-13T14:36:36;8.60;71.60
77277;DHT22;66330;52.166;9.978;2023-01-13T14:41:33;8.60;71.80
77277;DHT22;66330;52.166;9.978;2023-01-13T14:44:02;8.60;72.40
77277;DHT22;66330;52.166;9.978;2023-01-13T14:46:39;8.60;71.70
77277;DHT22;66330;52.166;9.978;2023-01-13T14:52:25;8.60;72.20
77277;DHT22;66330;52.166;9.978;2023-01-13T14:54:52;8.70;72.10
77277;DHT22;66330;52.166;9.978;2023-01-13T14:57:29;8.70;71.80
77277;DHT22;66330;52.166;9.978;2023-01-13T15:10:57;8.70;70.80
77277;DHT22;66330;52.166;9.978;2023-01-13T15:13:32;8.70;70.70
77277;DHT22;66330;52.166;9.978;2023-01-13T15:16:03;8.70;70.60
77277;DHT22;66330;52.166;9.978;2023-01-13T15:18:30;8.70;70.60
77277;DHT22;66330;52.166;9.978;2023-01-13T15:20:55;8.80;70.70
77277;DHT22;66330;52.166;9.978;2023-01-13T15:23:21;8.80;70.50
77277;DHT22;66330;52.166;9.978;2023-01-13T15:25:48;8.80;70.50
77277;DHT22;66330;52.166;9.978;2023-01-13T15:28:17;8.80;70.50
77277;DHT22;66330;52.166;9.978;2023-01-13T15:30:44;8.80;69.60
77277;DHT22;66330;52.166;9.978;2023-01-13T15:33:12;8.80;69.40
77277;DHT22;66330;52.166;9.978;2023-01-13T15:35:41;8.90;70.00
77277;DHT22;66330;52.166;9.978;2023-01-13T15:38:12;8.90;70.00
77277;DHT22;66330;52.166;9.978;2023-01-13T15:40:38;8.90;69.80
77277;DHT22;66330;52.166;9.978;2023-01-13T15:43:03;8.80;69.70
77277;DHT22;66330;52.166;9.978;2023-01-13T15:45:48;8.80;69.80
77277;DHT22;66330;52.166;9.978;2023-01-13T15:48:32;8.80;69.50
77277;DHT22;66330;52.166;9.978;2023-01-13T15:50:59;8.90;69.90
77277;DHT22;66330;52.166;9.978;2023-01-13T15:53:25;9.10;69.40
77277;DHT22;66330;52.166;9.978;2023-01-13T15:55:53;8.90;69.20
77277;DHT22;66330;52.166;9.978;2023-01-13T15:58:23;8.90;69.70
77277;DHT22;66330;52.166;9.978;2023-01-13T16:00:48;8.90;69.70
77277;DHT22;66330;52.166;9.978;2023-01-13T16:03:15;8.90;69.20
77277;DHT22;66330;52.166;9.978;2023-01-13T16:05:41;8.90;69.20
77277;DHT22;66330;52.166;9.978;2023-01-13T16:08:17;8.90;69.70
77277;DHT22;66330;52.166;9.978;2023-01-13T16:10:43;8.90;69.40
77277;DHT22;66330;52.166;9.978;2023-01-13T16:13:10;8.80;69.70
77277;DHT22;66330;52.166;9.978;2023-01-13T16:15:39;8.80;69.00
77277;DHT22;66330;52.166;9.978;2023-01-13T16:18:06;8.80;69.80
77277;DHT22;66330;52.166;9.978;2023-01-13T16:20:32;8.80;69.60
77277;DHT22;66330;52.166;9.978;2023-01-13T16:22:57;8.70;70.00
77277;DHT22;66330;52.166;9.978;2023-01-13T16:25:25;8.70;70.10
77277;DHT22;66330;52.166;9.978;2023-01-13T16:27:52;8.70;70.30
77277;DHT22;66330;52.166;9.978;2023-01-13T16:32:49;8.70;70.20
77277;DHT22;66330;52.166;9.978;2023-01-13T16:35:15;8.70;70.10
77277;DHT22;66330;52.166;9.978;2023-01-13T16:37:41;8.70;70.00
77277;DHT22;66330;52.166;9.978;2023-01-13T16:40:38;8.80;69.80
77277;DHT22;66330;52.166;9.978;2023-01-13T16:43:03;8.80;69.90
77277;DHT22;66330;52.166;9.978;2023-01-13T16:45:30;8.80;68.90
77277;DHT22;66330;52.166;9.978;2023-01-13T16:47:56;8.80;69.50
77277;DHT22;66330;52.166;9.978;2023-01-13T16:50:32;8.90;69.50
77277;DHT22;66330;52.166;9.978;2023-01-13T16:52:59;8.90;69.00
77277;DHT22;66330;52.166;9.978;2023-01-13T16:55:26;8.80;69.20
77277;DHT22;66330;52.166;9.978;2023-01-13T16:57:52;8.80;69.20
77277;DHT22;66330;52.166;9.978;2023-01-13T17:00:19;8.80;69.20
77277;DHT22;66330;52.166;9.978;2023-01-13T17:02:44;8.80;69.30
77277;DHT22;66330;52.166;9.978;2023-01-13T17:05:12;8.70;68.80
77277;DHT22;66330;52.166;9.978;2023-01-13T17:07:38;8.80;68.90
77277;DHT22;66330;52.166;9.978;2023-01-13T17:10:04;8.70;68.80
77277;DHT22;66330;52.166;9.978;2023-01-13T17:12:30;8.70;69.20
77277;DHT22;66330;52.166;9.978;2023-01-13T17:14:56;8.70;69.50
77277;DHT22;66330;52.166;9.978;2023-01-13T17:17:24;8.70;68.80
77277;DHT22;66330;52.166;9.978;2023-01-13T17:19:50;8.70;69.70
77277;DHT22;66330;52.166;9.978;2023-01-13T17:22:16;8.70;68.90
77277;DHT22;66330;52.166;9.978;2023-01-13T17:24:42;8.70;69.50
77277;DHT22;66330;52.166;9.978;2023-01-13T17:27:07;8.70;69.50
77277;DHT22;66330;52.166;9.978;2023-01-13T17:29:33;8.70;68.80
77277;DHT22;66330;52.166;9.978;2023-01-13T17:31:59;8.70;69.40
77277;DHT22;66330;52.166;9.978;2023-01-13T17:34:25;8.70;69.40
77277;DHT22;66330;52.166;9.978;2023-01-13T17:36:51;8.70;68.80
77277;DHT22;66330;52.166;9.978;2023-01-13T17:39:20;8.80;69.60
77277;DHT22;66330;52.166;9.978;2023-01-13T17:41:46;8.80;69.50
77277;DHT22;66330;52.166;9.978;2023-01-13T17:44:13;8.90;69.40
77277;DHT22;66330;52.166;9.978;2023-01-13T17:46:39;8.90;69.10
77277;DHT22;66330;52.166;9.978;2023-01-13T17:49:09;8.90;68.80
77277;DHT22;66330;52.166;9.978;2023-01-13T17:51:41;9.00;69.10
77277;DHT22;66330;52.166;9.978;2023-01-13T17:54:08;9.00;68.80
77277;DHT22;66330;52.166;9.978;2023-01-13T17:56:37;9.00;68.10
77277;DHT22;66330;52.166;9.978;2023-01-13T17:59:03;9.00;68.30
77277;DHT22;66330;52.166;9.978;2023-01-13T18:01:29;9.00;68.60